Time;durP1;ratioP1;P1;durP2;ratioP2;P2;SDS_P1;SDS_P2;PMS_P1;PMS_P2;Temp;Humidity;BMP_temperature;BMP_pressure;BME280_temperature;BME280_humidity;BME280_pressure;Samples;Min_cycle;Max_cycle;Signal;HPM_P1;HPM_P2
2021/03/27 00:01:42;;;;;;;10.45;6.65;;;;;;;;;;4964321;28;20113;-56
2021/03/27 00:04:26;;;;;;;14.55;6.85;;;;;;;;;;4964988;28;20475;-56
2021/03/27 00:06:59;;;;;;;12.40;6.63;;;;;;;;;;4963670;28;20408;-54
2021/03/27 00:09:24;;;;;;;10.45;6.50;;;;;;;;;;4964395;28;20462;-58
2021/03/27 00:11:56;;;;;;;12.38;6.15;;;;;;;;;;4963396;28;20042;-56
2021/03/27 00:14:41;;;;;;;16.45;8.10;;;;;;;;;;4962256;28;20159;-55
2021/03/27 00:17:09;;;;;;;12.27;6.60;;;;;;;;;;4965082;28;20125;-57
2021/03/27 00:19:41;;;;;;;12.00;6.25;;;;;;;;;;4964630;28;20430;-56
2021/03/27 00:22:13;;;;;;;15.15;6.70;;;;;;;;;;4965426;28;20050;-57
2021/03/27 00:24:57;;;;;;;13.57;6.90;;;;;;;;;;4963853;28;20038;-51
2021/03/27 00:27:27;;;;;;;13.20;6.80;;;;;;;;;;4962564;28;20039;-54
2021/03/27 00:29:57;;;;;;;16.63;7.07;;;;;;;;;;4965214;28;20038;-55
2021/03/27 00:32:29;;;;;;;10.13;5.95;;;;;;;;;;4964868;28;20979;-55
2021/03/27 00:34:56;;;;;;;13.13;6.20;;;;;;;;;;4962397;28;20482;-54
2021/03/27 00:37:24;;;;;;;13.18;6.15;;;;;;;;;;4965123;28;20039;-54
2021/03/27 00:40:11;;;;;;;11.32;6.03;;;;;;;;;;4966362;28;20069;-55
2021/03/27 00:42:39;;;;;;;10.13;6.30;;;;;;;;;;4963807;28;20127;-54
2021/03/27 00:45:08;;;;;;;12.75;6.45;;;;;;;;;;4963900;28;20048;-55
2021/03/27 00:47:36;;;;;;;11.15;6.22;;;;;;;;;;4964101;28;20043;-52
2021/03/27 00:50:07;;;;;;;10.90;6.38;;;;;;;;;;4965721;28;20418;-54
2021/03/27 00:52:42;;;;;;;17.83;7.40;;;;;;;;;;4963113;28;20186;-52
2021/03/27 00:55:11;;;;;;;14.07;7.13;;;;;;;;;;4993299;28;20133;-52
2021/03/27 00:57:40;;;;;;;10.40;6.47;;;;;;;;;;4963229;28;20069;-54
2021/03/27 01:00:21;;;;;;;13.65;7.72;;;;;;;;;;4961967;28;20039;-54
2021/03/27 01:02:50;;;;;;;17.83;6.85;;;;;;;;;;4964781;28;20038;-55
2021/03/27 01:05:18;;;;;;;11.57;6.65;;;;;;;;;;4963241;28;20192;-52
2021/03/27 01:07:46;;;;;;;14.93;7.10;;;;;;;;;;4963158;28;20046;-53
2021/03/27 01:10:21;;;;;;;14.32;7.43;;;;;;;;;;4963477;28;20118;-54
2021/03/27 01:12:47;;;;;;;18.48;6.78;;;;;;;;;;4961940;28;20042;-53
2021/03/27 01:15:13;;;;;;;16.60;7.15;;;;;;;;;;4961101;28;20120;-54
2021/03/27 01:17:41;;;;;;;7.50;4.13;;;;;;;;;;4962609;28;20130;-52
2021/03/27 01:20:33;;;;;;;15.48;7.22;;;;;;;;;;4964706;28;20047;-55
2021/03/27 01:23:00;;;;;;;14.68;7.63;;;;;;;;;;4955727;28;20433;-53
2021/03/27 01:25:27;;;;;;;18.20;6.97;;;;;;;;;;4953447;28;20035;-55
2021/03/27 01:27:55;;;;;;;16.00;5.30;;;;;;;;;;4963597;28;20050;-54
2021/03/27 01:30:28;;;;;;;15.43;6.32;;;;;;;;;;4962194;28;20133;-56
2021/03/27 01:32:54;;;;;;;;;;;;;;;;;;4963392;28;20031;-54
2021/03/27 01:35:28;;;;;;;15.18;6.90;;;;;;;;;;4962439;28;20390;-55
2021/03/27 01:38:02;;;;;;;16.10;6.97;;;;;;;;;;4963927;28;20137;-56
2021/03/27 01:40:38;;;;;;;12.57;4.72;;;;;;;;;;4962223;28;20054;-53
2021/03/27 01:43:07;;;;;;;17.92;7.35;;;;;;;;;;4962110;28;20054;-54
2021/03/27 01:46:02;;;;;;;11.70;6.63;;;;;;;;;;4964062;28;20146;-51
2021/03/27 01:48:41;;;;;;;13.68;5.80;;;;;;;;;;4960834;28;20089;-53
2021/03/27 01:51:30;;;;;;;12.80;6.00;;;;;;;;;;4962467;28;20038;-53
2021/03/27 01:54:01;;;;;;;13.02;5.93;;;;;;;;;;4949678;28;20034;-54
2021/03/27 01:56:56;;;;;;;12.95;7.18;;;;;;;;;;4961868;28;20054;-53
2021/03/27 01:59:40;;;;;;;11.48;5.97;;;;;;;;;;4955096;28;20066;-52
2021/03/27 02:02:17;;;;;;;11.80;5.20;;;;;;;;;;4963156;28;20051;-54
2021/03/27 02:04:58;;;;;;;12.90;5.30;;;;;;;;;;4961063;28;20050;-51
2021/03/27 02:07:40;;;;;;;12.50;5.28;;;;;;;;;;4962300;28;20134;-55
2021/03/27 02:10:24;;;;;;;9.23;5.00;;;;;;;;;;4963439;28;20035;-52
2021/03/27 02:13:06;;;;;;;11.32;5.20;;;;;;;;;;4961724;28;20035;-53
2021/03/27 02:15:41;;;;;;;15.60;5.35;;;;;;;;;;4962918;28;20047;-51
2021/03/27 02:18:15;;;;;;;14.73;6.65;;;;;;;;;;4964256;28;20073;-51
2021/03/27 02:20:59;;;;;;;15.77;7.25;;;;;;;;;;4964222;28;20050;-51
2021/03/27 02:23:25;;;;;;;13.85;7.50;;;;;;;;;;4960804;28;20046;-54
2021/03/27 02:26:08;;;;;;;19.17;8.55;;;;;;;;;;4961235;28;20061;-54
2021/03/27 02:28:43;;;;;;;13.98;7.25;;;;;;;;;;4962259;28;20042;-55
2021/03/27 02:31:21;;;;;;;14.93;8.30;;;;;;;;;;4965829;28;20038;-57
2021/03/27 02:33:56;;;;;;;15.90;8.98;;;;;;;;;;4974863;28;20054;-55
2021/03/27 02:36:25;;;;;;;16.63;9.60;;;;;;;;;;4960960;28;20053;-53
2021/03/27 02:38:54;;;;;;;18.95;9.30;;;;;;;;;;4961007;28;20050;-52
2021/03/27 02:41:35;;;;;;;19.88;11.60;;;;;;;;;;4960194;28;20133;-55
2021/03/27 02:44:20;;;;;;;19.33;10.15;;;;;;;;;;4960536;28;20592;-55
2021/03/27 02:46:56;;;;;;;21.48;10.70;;;;;;;;;;4941927;28;20039;-53
2021/03/27 02:49:27;;;;;;;17.95;9.85;;;;;;;;;;4941226;28;20043;-51
2021/03/27 02:52:05;;;;;;;21.83;14.20;;;;;;;;;;4943935;28;20130;-56
2021/03/27 02:54:31;;;;;;;20.85;11.80;;;;;;;;;;4960654;28;20077;-51
2021/03/27 02:57:07;;;;;;;22.80;13.02;;;;;;;;;;4943249;28;20189;-51
2021/03/27 02:59:50;;;;;;;24.85;15.13;;;;;;;;;;4942786;28;20157;-56
2021/03/27 03:02:32;;;;;;;30.05;15.68;;;;;;;;;;4943512;28;20125;-53
2021/03/27 03:05:06;;;;;;;25.73;14.57;;;;;;;;;;4935292;28;20111;-52
2021/03/27 03:07:51;;;;;;;26.77;15.55;;;;;;;;;;4942645;28;20404;-51
2021/03/27 03:10:26;;;;;;;26.17;15.07;;;;;;;;;;4943986;28;20060;-55
2021/03/27 03:13:00;;;;;;;36.40;17.90;;;;;;;;;;4958456;28;20458;-54
2021/03/27 03:15:41;;;;;;;27.52;15.50;;;;;;;;;;4946214;28;20077;-54
2021/03/27 03:18:28;;;;;;;27.27;14.90;;;;;;;;;;4962310;28;20038;-55
2021/03/27 03:20:59;;;;;;;31.55;16.98;;;;;;;;;;4942822;28;20046;-55
2021/03/27 03:23:36;;;;;;;31.80;19.33;;;;;;;;;;4933182;28;20191;-54
2021/03/27 03:26:07;;;;;;;29.70;17.75;;;;;;;;;;4968155;28;20039;-56
2021/03/27 03:29:05;;;;;;;32.60;16.63;;;;;;;;;;4948216;28;20042;-52
2021/03/27 03:31:40;;;;;;;31.77;16.60;;;;;;;;;;4952054;28;20042;-55
2021/03/27 03:34:06;;;;;;;31.00;15.90;;;;;;;;;;4964112;28;20455;-53
2021/03/27 03:36:32;;;;;;;27.63;14.40;;;;;;;;;;4966511;28;20047;-55
2021/03/27 03:39:18;;;;;;;22.58;13.18;;;;;;;;;;4964910;28;20076;-56
2021/03/27 03:41:44;;;;;;;17.08;10.65;;;;;;;;;;4962239;28;20050;-54
2021/03/27 03:44:15;;;;;;;15.18;9.57;;;;;;;;;;4973676;28;20066;-56
2021/03/27 03:46:51;;;;;;;15.25;9.70;;;;;;;;;;4977594;28;20045;-56
2021/03/27 03:49:36;;;;;;;16.38;10.38;;;;;;;;;;4970768;28;20035;-54
2021/03/27 03:52:11;;;;;;;13.18;10.40;;;;;;;;;;4967180;28;20066;-55
2021/03/27 03:54:47;;;;;;;13.73;8.73;;;;;;;;;;4965112;28;20129;-56
2021/03/27 03:57:23;;;;;;;14.02;10.25;;;;;;;;;;4965266;28;20138;-54
2021/03/27 04:00:10;;;;;;;14.40;9.73;;;;;;;;;;4962266;28;20042;-55
2021/03/27 04:02:55;;;;;;;14.65;10.05;;;;;;;;;;4960841;28;20060;-56
2021/03/27 04:05:25;;;;;;;16.45;11.10;;;;;;;;;;4963104;28;20035;-53
2021/03/27 04:07:59;;;;;;;17.65;10.93;;;;;;;;;;4963707;28;20424;-53
2021/03/27 04:10:27;;;;;;;15.77;10.90;;;;;;;;;;4962579;28;20093;-56
2021/03/27 04:12:57;;;;;;;15.90;10.75;;;;;;;;;;4962090;28;20515;-54
2021/03/27 04:15:34;;;;;;;13.65;9.43;;;;;;;;;;4963719;28;20719;-55
2021/03/27 04:18:10;;;;;;;14.23;9.30;;;;;;;;;;4964777;28;20070;-56
2021/03/27 04:20:45;;;;;;;13.23;9.85;;;;;;;;;;4958965;28;20046;-56
2021/03/27 04:23:20;;;;;;;12.48;7.75;;;;;;;;;;4984611;28;20137;-54
2021/03/27 04:26:04;;;;;;;9.35;6.45;;;;;;;;;;4956690;28;20058;-55
2021/03/27 04:28:55;;;;;;;8.27;5.68;;;;;;;;;;4957814;28;20133;-56
2021/03/27 04:31:28;;;;;;;7.82;4.97;;;;;;;;;;4974251;28;20046;-57
2021/03/27 04:34:06;;;;;;;6.32;4.20;;;;;;;;;;4969256;28;20514;-55
2021/03/27 04:36:39;;;;;;;7.30;4.28;;;;;;;;;;4982771;28;20595;-56
2021/03/27 04:39:09;;;;;;;6.35;4.47;;;;;;;;;;4964479;28;20073;-56
2021/03/27 04:41:39;;;;;;;6.80;4.18;;;;;;;;;;4963182;28;20054;-55
2021/03/27 04:44:20;;;;;;;9.88;4.10;;;;;;;;;;4963946;28;20050;-55
2021/03/27 04:46:51;;;;;;;6.35;4.25;;;;;;;;;;4964400;28;20515;-53
2021/03/27 04:49:31;;;;;;;6.45;3.97;;;;;;;;;;4964011;28;20043;-55
2021/03/27 04:52:06;;;;;;;6.47;3.60;;;;;;;;;;4963616;28;20038;-53
2021/03/27 04:54:32;;;;;;;7.03;4.55;;;;;;;;;;4985220;28;20038;-54
2021/03/27 04:56:58;;;;;;;6.30;3.88;;;;;;;;;;4962335;28;20625;-54
2021/03/27 04:59:42;;;;;;;7.47;4.30;;;;;;;;;;4964867;28;20045;-55
2021/03/27 05:02:10;;;;;;;6.13;3.50;;;;;;;;;;4964317;28;20050;-55
2021/03/27 05:04:42;;;;;;;5.35;3.33;;;;;;;;;;4963274;28;20047;-56
2021/03/27 05:07:17;;;;;;;7.10;3.65;;;;;;;;;;4964258;28;20594;-57
2021/03/27 05:09:50;;;;;;;6.63;3.70;;;;;;;;;;4963579;28;20052;-56
2021/03/27 05:12:45;;;;;;;8.13;3.95;;;;;;;;;;4962327;28;20097;-56
2021/03/27 05:15:27;;;;;;;6.28;3.92;;;;;;;;;;4957780;28;20038;-57
2021/03/27 05:18:05;;;;;;;6.78;3.33;;;;;;;;;;4963745;28;20054;-55
2021/03/27 05:20:37;;;;;;;6.22;3.53;;;;;;;;;;4962542;28;20137;-55
2021/03/27 05:23:23;;;;;;;6.40;3.53;;;;;;;;;;4964684;28;20049;-54
2021/03/27 05:25:56;;;;;;;5.72;3.75;;;;;;;;;;4962511;28;20043;-56
2021/03/27 05:28:28;;;;;;;6.00;3.42;;;;;;;;;;4963249;28;20484;-55
2021/03/27 05:30:53;;;;;;;5.35;3.10;;;;;;;;;;4964535;28;20043;-55
2021/03/27 05:33:31;;;;;;;6.63;3.50;;;;;;;;;;4961035;28;20041;-52
2021/03/27 05:36:01;;;;;;;5.90;3.63;;;;;;;;;;4965016;28;20043;-56
2021/03/27 05:38:33;;;;;;;7.57;4.22;;;;;;;;;;4965349;28;20113;-55
2021/03/27 05:41:02;;;;;;;7.00;4.38;;;;;;;;;;4963663;28;20056;-56
2021/03/27 05:43:28;;;;;;;8.90;4.50;;;;;;;;;;4961644;28;20039;-55
2021/03/27 05:46:12;;;;;;;6.88;4.45;;;;;;;;;;4962647;28;20038;-56
2021/03/27 05:48:53;;;;;;;10.88;4.50;;;;;;;;;;4962927;28;20559;-55
2021/03/27 05:51:39;;;;;;;8.10;4.25;;;;;;;;;;4963818;28;20047;-53
2021/03/27 05:54:12;;;;;;;9.80;5.03;;;;;;;;;;4960922;28;20527;-55
2021/03/27 05:56:56;;;;;;;8.45;5.43;;;;;;;;;;4961830;28;20133;-56
2021/03/27 05:59:40;;;;;;;8.55;5.30;;;;;;;;;;4962698;28;20035;-56
2021/03/27 06:02:12;;;;;;;13.02;6.57;;;;;;;;;;4961945;28;20142;-56
2021/03/27 06:04:50;;;;;;;9.57;5.80;;;;;;;;;;4963173;28;20035;-56
2021/03/27 06:07:28;;;;;;;9.82;5.70;;;;;;;;;;4963423;28;20042;-56
2021/03/27 06:10:00;;;;;;;12.25;6.50;;;;;;;;;;4962314;28;20043;-53
2021/03/27 06:12:57;;;;;;;9.52;6.43;;;;;;;;;;4961279;28;20054;-56
2021/03/27 06:15:41;;;;;;;12.60;7.00;;;;;;;;;;4962093;28;20443;-55
2021/03/27 06:18:25;;;;;;;11.07;6.18;;;;;;;;;;4963281;28;20062;-57
2021/03/27 06:20:51;;;;;;;12.20;6.72;;;;;;;;;;4963765;28;20085;-54
2021/03/27 06:23:20;;;;;;;11.10;6.28;;;;;;;;;;4962847;28;20896;-54
2021/03/27 06:25:52;;;;;;;8.65;5.47;;;;;;;;;;4963735;28;20088;-57
2021/03/27 06:28:36;;;;;;;8.88;5.63;;;;;;;;;;4961326;28;20133;-55
2021/03/27 06:31:05;;;;;;;10.82;6.05;;;;;;;;;;4964529;28;20615;-57
2021/03/27 06:33:42;;;;;;;10.98;6.50;;;;;;;;;;4962127;28;20026;-57
2021/03/27 06:36:17;;;;;;;11.05;5.82;;;;;;;;;;4994591;28;20661;-56
2021/03/27 06:38:45;;;;;;;12.00;7.25;;;;;;;;;;4962339;28;20511;-56
2021/03/27 06:41:29;;;;;;;10.75;6.50;;;;;;;;;;4963363;28;20042;-55
2021/03/27 06:44:01;;;;;;;15.48;7.78;;;;;;;;;;4960735;28;20054;-56
2021/03/27 06:46:39;;;;;;;12.68;7.82;;;;;;;;;;4962976;28;20121;-56
2021/03/27 06:49:20;;;;;;;13.55;7.60;;;;;;;;;;4961590;28;20083;-57
2021/03/27 06:51:49;;;;;;;12.77;7.75;;;;;;;;;;4960462;28;20055;-56
2021/03/27 06:54:18;;;;;;;13.30;7.70;;;;;;;;;;4961773;28;20090;-55
2021/03/27 06:57:03;;;;;;;14.48;7.78;;;;;;;;;;4961426;28;20055;-57
2021/03/27 06:59:48;;;;;;;12.80;8.07;;;;;;;;;;4960938;28;20137;-57
2021/03/27 07:02:29;;;;;;;14.07;8.45;;;;;;;;;;4964255;28;20368;-57
2021/03/27 07:05:13;;;;;;;13.10;8.15;;;;;;;;;;4967459;28;20043;-55
2021/03/27 07:08:05;;;;;;;12.80;7.78;;;;;;;;;;4966321;28;20039;-54
2021/03/27 07:10:34;;;;;;;12.35;7.50;;;;;;;;;;4967681;28;20054;-54
2021/03/27 07:13:15;;;;;;;12.80;7.05;;;;;;;;;;4967865;28;20039;-55
2021/03/27 07:15:50;;;;;;;11.70;6.10;;;;;;;;;;4968569;28;20039;-54
2021/03/27 07:18:36;;;;;;;12.35;6.85;;;;;;;;;;4968352;28;20496;-55
2021/03/27 07:21:25;;;;;;;14.70;7.20;;;;;;;;;;4969716;28;20058;-54
2021/03/27 07:23:50;;;;;;;10.65;6.97;;;;;;;;;;4967362;28;20078;-54
2021/03/27 07:26:22;;;;;;;13.18;7.03;;;;;;;;;;4968026;28;20627;-52
2021/03/27 07:29:00;;;;;;;12.68;7.43;;;;;;;;;;4967931;28;20042;-55
2021/03/27 07:31:32;;;;;;;10.73;6.82;;;;;;;;;;4969552;28;20097;-55
2021/03/27 07:34:16;;;;;;;11.38;6.13;;;;;;;;;;4965743;28;20118;-55
2021/03/27 07:37:14;;;;;;;8.73;5.78;;;;;;;;;;4967647;28;20066;-55
2021/03/27 07:39:49;;;;;;;8.98;5.75;;;;;;;;;;4957830;28;20122;-55
2021/03/27 07:42:33;;;;;;;15.50;5.93;;;;;;;;;;4969802;28;20114;-57
2021/03/27 07:45:11;;;;;;;11.57;5.95;;;;;;;;;;4970100;28;20041;-56
2021/03/27 07:48:00;;;;;;;10.32;6.53;;;;;;;;;;4986241;28;20053;-55
2021/03/27 07:50:32;;;;;;;9.68;6.00;;;;;;;;;;4964437;28;20092;-55
2021/03/27 07:53:16;;;;;;;9.85;5.53;;;;;;;;;;4967743;28;20133;-55
2021/03/27 07:56:00;;;;;;;9.48;5.90;;;;;;;;;;4967638;28;20129;-55
2021/03/27 07:58:26;;;;;;;9.23;5.57;;;;;;;;;;4981853;28;20499;-53
2021/03/27 08:01:06;;;;;;;9.27;5.45;;;;;;;;;;4969192;28;20197;-56
2021/03/27 08:03:57;;;;;;;10.57;5.80;;;;;;;;;;4968001;28;20047;-57
2021/03/27 08:06:41;;;;;;;8.75;5.13;;;;;;;;;;4968822;28;20933;-56
2021/03/27 08:09:26;;;;;;;15.25;7.00;;;;;;;;;;4969575;28;20046;-55
2021/03/27 08:11:58;;;;;;;10.43;6.63;;;;;;;;;;4966868;28;20051;-56
2021/03/27 08:14:33;;;;;;;9.40;5.28;;;;;;;;;;4964600;28;20043;-54
2021/03/27 08:17:17;;;;;;;10.02;5.78;;;;;;;;;;4966222;28;20133;-57
2021/03/27 08:19:46;;;;;;;11.32;6.53;;;;;;;;;;4964748;28;20041;-56
2021/03/27 08:22:17;;;;;;;11.95;5.95;;;;;;;;;;4966089;28;20049;-56
2021/03/27 08:24:46;;;;;;;12.18;5.90;;;;;;;;;;4963116;28;20100;-54
2021/03/27 08:27:29;;;;;;;9.40;5.88;;;;;;;;;;4965486;28;20050;-55
2021/03/27 08:30:13;;;;;;;10.73;5.90;;;;;;;;;;4965176;28;20045;-56
2021/03/27 08:32:44;;;;;;;10.35;6.18;;;;;;;;;;4964224;28;20097;-53
2021/03/27 08:35:10;;;;;;;8.70;5.57;;;;;;;;;;4964228;28;20061;-57
2021/03/27 08:37:47;;;;;;;8.38;5.07;;;;;;;;;;4963776;28;20496;-56
2021/03/27 08:40:32;;;;;;;10.93;6.25;;;;;;;;;;4963706;28;20138;-57
2021/03/27 08:43:00;;;;;;;11.60;6.05;;;;;;;;;;4963572;28;20090;-57
2021/03/27 08:45:47;;;;;;;8.77;5.80;;;;;;;;;;4962642;28;20039;-54
2021/03/27 08:48:22;;;;;;;12.85;6.63;;;;;;;;;;4965037;28;20121;-53
2021/03/27 08:51:07;;;;;;;11.75;6.38;;;;;;;;;;5000101;28;20049;-54
2021/03/27 08:53:36;;;;;;;14.02;6.78;;;;;;;;;;4997372;28;20344;-55
2021/03/27 08:56:20;;;;;;;11.60;7.07;;;;;;;;;;4998347;28;20053;-57
2021/03/27 08:58:46;;;;;;;10.07;6.43;;;;;;;;;;4963445;28;20166;-55
2021/03/27 09:01:30;;;;;;;11.95;6.05;;;;;;;;;;4998670;28;20117;-56
2021/03/27 09:04:14;;;;;;;11.73;7.25;;;;;;;;;;5001297;28;20041;-52
2021/03/27 09:06:39;;;;;;;;;;;;;;;;;;5001403;28;20068;-55
2021/03/27 09:09:20;;;;;;;12.02;7.18;;;;;;;;;;5000863;28;19961;-53
2021/03/27 09:11:59;;;;;;;11.65;7.50;;;;;;;;;;5000685;28;20034;-55
2021/03/27 09:14:30;;;;;;;11.32;7.72;;;;;;;;;;5001206;28;20073;-55
2021/03/27 09:17:14;;;;;;;12.18;7.28;;;;;;;;;;5001312;28;20038;-57
2021/03/27 09:19:43;;;;;;;13.82;8.20;;;;;;;;;;5018221;28;20073;-56
2021/03/27 09:22:27;;;;;;;11.05;6.70;;;;;;;;;;5000107;28;21229;-54
2021/03/27 09:24:52;;;;;;;;;;;;;;;;;;5000690;28;20642;-56
2021/03/27 09:27:20;;;;;;;10.88;6.40;;;;;;;;;;5000205;28;19921;-56
2021/03/27 09:29:52;;;;;;;12.82;7.07;;;;;;;;;;4966533;28;20730;-56
2021/03/27 09:32:18;;;;;;;10.43;6.47;;;;;;;;;;4963787;28;20102;-56
2021/03/27 09:35:02;;;;;;;9.80;5.85;;;;;;;;;;4965455;28;20118;-55
2021/03/27 09:37:34;;;;;;;12.00;6.55;;;;;;;;;;4964696;28;20043;-57
2021/03/27 09:40:08;;;;;;;12.35;6.90;;;;;;;;;;4963197;28;20046;-55
2021/03/27 09:42:34;;;;;;;11.68;7.10;;;;;;;;;;4964273;28;20047;-56
2021/03/27 09:45:05;;;;;;;14.88;7.85;;;;;;;;;;4961976;28;20039;-56
2021/03/27 09:47:34;;;;;;;10.25;6.90;;;;;;;;;;4962157;28;20047;-56
2021/03/27 09:50:03;;;;;;;12.35;7.40;;;;;;;;;;4962224;28;20052;-55
2021/03/27 09:52:40;;;;;;;9.82;5.90;;;;;;;;;;4961240;28;20491;-57
2021/03/27 09:55:15;;;;;;;9.38;5.38;;;;;;;;;;4963286;28;20134;-55
2021/03/27 09:57:41;;;;;;;9.77;5.97;;;;;;;;;;4962190;28;20101;-55
2021/03/27 10:00:07;;;;;;;11.07;6.25;;;;;;;;;;4965479;28;20058;-56
2021/03/27 10:02:32;;;;;;;10.88;6.40;;;;;;;;;;4961900;28;20146;-56
2021/03/27 10:05:01;;;;;;;12.18;7.68;;;;;;;;;;4964069;28;21953;-57
2021/03/27 10:07:27;;;;;;;11.48;7.28;;;;;;;;;;4961805;28;20050;-54
2021/03/27 10:10:11;;;;;;;15.95;8.50;;;;;;;;;;4963148;28;21986;-56
2021/03/27 10:12:58;;;;;;;15.20;9.48;;;;;;;;;;4961754;28;20314;-57
2021/03/27 10:15:42;;;;;;;14.52;9.35;;;;;;;;;;4963054;28;20125;-57
2021/03/27 10:18:19;;;;;;;16.50;9.80;;;;;;;;;;4966625;28;20173;-55
2021/03/27 10:20:50;;;;;;;16.67;9.90;;;;;;;;;;4962906;28;20054;-57
2021/03/27 10:23:23;;;;;;;14.75;9.07;;;;;;;;;;4963960;28;20418;-56
2021/03/27 10:26:07;;;;;;;15.40;8.05;;;;;;;;;;4962173;28;20404;-58
2021/03/27 10:28:32;;;;;;;;;;;;;;;;;;4963541;28;20046;-58
2021/03/27 10:31:24;;;;;;;13.85;8.32;;;;;;;;;;4964415;28;19921;-56
2021/03/27 10:34:01;;;;;;;15.85;9.15;;;;;;;;;;4960455;28;20131;-56
2021/03/27 10:36:30;;;;;;;14.35;7.63;;;;;;;;;;4960827;28;20043;-56
2021/03/27 10:39:14;;;;;;;12.75;7.57;;;;;;;;;;4963482;28;20045;-57
2021/03/27 10:41:39;;;;;;;12.93;7.10;;;;;;;;;;4961787;28;20058;-57
2021/03/27 10:44:26;;;;;;;11.35;7.18;;;;;;;;;;4962089;28;20046;-56
2021/03/27 10:46:56;;;;;;;12.32;6.43;;;;;;;;;;4961562;28;20046;-56
2021/03/27 10:49:25;;;;;;;12.25;6.28;;;;;;;;;;4960548;28;20500;-57
2021/03/27 10:51:51;;;;;;;11.10;6.95;;;;;;;;;;4961012;28;20057;-54
2021/03/27 10:54:35;;;;;;;11.27;6.85;;;;;;;;;;4963332;28;20047;-56
2021/03/27 10:57:21;;;;;;;11.32;6.45;;;;;;;;;;4938464;28;20054;-56
2021/03/27 10:59:56;;;;;;;12.15;6.95;;;;;;;;;;4942871;28;20476;-56
2021/03/27 11:02:42;;;;;;;12.50;7.00;;;;;;;;;;4940676;28;20066;-56
2021/03/27 11:05:08;;;;;;;12.07;7.40;;;;;;;;;;4940853;28;20087;-57
2021/03/27 11:07:57;;;;;;;13.02;7.78;;;;;;;;;;4939616;28;20151;-56
2021/03/27 11:10:41;;;;;;;13.30;7.07;;;;;;;;;;4941063;28;20162;-56
2021/03/27 11:13:25;;;;;;;14.25;7.95;;;;;;;;;;4940375;28;20058;-57
2021/03/27 11:16:09;;;;;;;14.77;8.23;;;;;;;;;;4940707;28;20047;-56
2021/03/27 11:18:35;;;;;;;11.52;7.60;;;;;;;;;;4939660;28;20411;-57
2021/03/27 11:21:22;;;;;;;14.60;7.80;;;;;;;;;;4941671;28;20047;-55
2021/03/27 11:24:17;;;;;;;12.25;7.55;;;;;;;;;;4939964;28;20035;-56
2021/03/27 11:26:55;;;;;;;12.82;7.80;;;;;;;;;;4937539;28;20051;-57
2021/03/27 11:29:36;;;;;;;13.38;7.63;;;;;;;;;;4958988;28;20057;-56
2021/03/27 11:32:07;;;;;;;12.82;7.97;;;;;;;;;;4962320;28;20039;-56
2021/03/27 11:34:39;;;;;;;14.40;7.78;;;;;;;;;;4960543;28;20047;-54
2021/03/27 11:37:05;;;;;;;12.32;7.95;;;;;;;;;;4962016;28;20042;-55
2021/03/27 11:39:34;;;;;;;13.48;7.95;;;;;;;;;;4960745;28;20039;-56
2021/03/27 11:42:00;;;;;;;14.07;8.52;;;;;;;;;;4962459;28;20586;-56
2021/03/27 11:44:44;;;;;;;14.77;8.32;;;;;;;;;;4962307;28;20057;-52
2021/03/27 11:47:09;;;;;;;;;;;;;;;;;;4962550;28;20042;-55
2021/03/27 11:49:42;;;;;;;14.27;8.00;;;;;;;;;;4961486;28;19922;-57
2021/03/27 11:52:20;;;;;;;16.77;8.75;;;;;;;;;;4966008;28;20128;-54
2021/03/27 11:54:46;;;;;;;19.75;9.52;;;;;;;;;;4963043;28;20074;-55
2021/03/27 11:57:15;;;;;;;15.60;9.40;;;;;;;;;;4964760;28;20133;-57
2021/03/27 12:02:40;;;;;;;16.00;9.25;;;;;;;;;;4964995;28;20141;-56
2021/03/27 12:05:24;;;;;;;20.10;10.20;;;;;;;;;;4964667;28;20038;-54
2021/03/27 12:07:55;;;;;;;19.88;10.70;;;;;;;;;;4966746;28;20126;-55
2021/03/27 12:10:27;;;;;;;21.33;11.13;;;;;;;;;;4962366;28;20054;-56
2021/03/27 12:13:05;;;;;;;20.75;11.25;;;;;;;;;;4965545;28;20047;-56
2021/03/27 12:15:32;;;;;;;22.08;11.45;;;;;;;;;;4964381;28;20038;-57
2021/03/27 12:18:16;;;;;;;21.55;12.38;;;;;;;;;;4965405;28;20039;-57
2021/03/27 12:20:44;;;;;;;20.83;11.93;;;;;;;;;;4966898;28;20043;-57
2021/03/27 12:23:25;;;;;;;21.00;12.00;;;;;;;;;;4964700;28;20049;-58
2021/03/27 12:25:51;;;;;;;21.13;11.77;;;;;;;;;;4964478;28;20820;-57
2021/03/27 12:28:38;;;;;;;21.77;12.30;;;;;;;;;;4962944;28;20096;-55
2021/03/27 12:31:07;;;;;;;19.60;11.40;;;;;;;;;;4964805;28;20499;-55
2021/03/27 12:33:32;;;;;;;22.88;13.23;;;;;;;;;;4964131;28;20043;-55
2021/03/27 12:36:07;;;;;;;25.90;12.65;;;;;;;;;;4963634;28;20416;-57
2021/03/27 12:39:05;;;;;;;20.52;11.77;;;;;;;;;;4963416;28;20047;-56
2021/03/27 12:41:38;;;;;;;20.65;11.90;;;;;;;;;;4941238;28;20068;-58
2021/03/27 12:44:05;;;;;;;22.80;11.73;;;;;;;;;;4965558;28;20058;-58
2021/03/27 12:46:34;;;;;;;21.15;12.13;;;;;;;;;;4964537;28;21007;-57
2021/03/27 12:49:29;;;;;;;20.70;11.52;;;;;;;;;;4965247;28;20663;-57
2021/03/27 12:52:13;;;;;;;19.23;11.38;;;;;;;;;;4943578;28;20039;-57
2021/03/27 12:54:57;;;;;;;20.48;11.00;;;;;;;;;;4953101;28;20038;-55
2021/03/27 12:57:34;;;;;;;21.73;12.02;;;;;;;;;;4945507;28;20063;-56
2021/03/27 13:00:04;;;;;;;19.95;11.60;;;;;;;;;;4944702;28;20121;-56
2021/03/27 13:02:35;;;;;;;22.85;12.27;;;;;;;;;;4957925;28;20066;-58
2021/03/27 13:05:20;;;;;;;24.23;12.20;;;;;;;;;;4961189;28;20046;-58
2021/03/27 13:07:52;;;;;;;24.17;12.75;;;;;;;;;;4963307;28;20038;-56
2021/03/27 13:10:36;;;;;;;24.98;13.25;;;;;;;;;;4962988;28;20496;-58
2021/03/27 13:13:08;;;;;;;27.42;14.13;;;;;;;;;;4964570;28;20035;-56
2021/03/27 13:15:40;;;;;;;26.23;14.40;;;;;;;;;;4961750;28;20038;-55
2021/03/27 13:18:05;;;;;;;26.23;13.65;;;;;;;;;;4964394;28;20104;-60
2021/03/27 13:21:00;;;;;;;26.48;14.20;;;;;;;;;;4962712;28;20027;-57
2021/03/27 13:23:34;;;;;;;27.02;14.35;;;;;;;;;;4973729;28;21028;-56
2021/03/27 13:26:06;;;;;;;28.60;14.13;;;;;;;;;;4950577;28;20077;-55
2021/03/27 13:28:46;;;;;;;25.05;13.43;;;;;;;;;;4961738;28;20137;-57
2021/03/27 13:31:12;;;;;;;25.20;13.15;;;;;;;;;;4964511;28;20239;-57
2021/03/27 13:33:56;;;;;;;29.08;14.05;;;;;;;;;;4962203;28;20034;-57
2021/03/27 13:36:26;;;;;;;27.67;14.10;;;;;;;;;;4963914;28;20046;-56
2021/03/27 13:38:56;;;;;;;26.95;13.80;;;;;;;;;;4964328;28;20138;-57
2021/03/27 13:41:50;;;;;;;26.95;14.27;;;;;;;;;;4964760;28;20062;-56
2021/03/27 13:44:28;;;;;;;28.92;14.27;;;;;;;;;;4964137;28;20054;-57
2021/03/27 13:46:57;;;;;;;29.92;16.10;;;;;;;;;;4962835;28;20089;-56
2021/03/27 13:49:24;;;;;;;29.17;15.40;;;;;;;;;;4962004;28;20035;-55
2021/03/27 13:51:56;;;;;;;30.45;16.65;;;;;;;;;;4963716;28;20035;-57
2021/03/27 13:54:22;;;;;;;29.92;16.33;;;;;;;;;;4962972;28;20573;-56
2021/03/27 13:57:00;;;;;;;28.50;15.07;;;;;;;;;;4975357;28;20050;-57
2021/03/27 13:59:44;;;;;;;30.38;14.70;;;;;;;;;;4967621;28;20038;-54
2021/03/27 14:02:20;;;;;;;25.77;13.25;;;;;;;;;;4964575;28;20054;-55
2021/03/27 14:04:47;;;;;;;26.35;13.75;;;;;;;;;;4962249;28;20039;-56
2021/03/27 14:07:19;;;;;;;23.55;13.02;;;;;;;;;;4962443;28;20045;-56
2021/03/27 14:09:49;;;;;;;22.50;12.48;;;;;;;;;;4961937;28;20749;-56
2021/03/27 14:12:18;;;;;;;24.25;12.30;;;;;;;;;;4961739;28;20595;-56
2021/03/27 14:15:02;;;;;;;25.65;12.77;;;;;;;;;;4961673;28;20418;-56
2021/03/27 14:17:46;;;;;;;28.27;13.10;;;;;;;;;;4961711;28;20043;-55
2021/03/27 14:20:21;;;;;;;23.58;12.60;;;;;;;;;;4962934;28;20047;-56
2021/03/27 14:23:10;;;;;;;22.73;12.38;;;;;;;;;;4961017;28;20051;-58
2021/03/27 14:25:43;;;;;;;23.85;12.35;;;;;;;;;;4964678;28;20031;-57
2021/03/27 14:28:19;;;;;;;22.83;11.70;;;;;;;;;;4962652;28;20079;-56
2021/03/27 14:30:48;;;;;;;20.70;11.57;;;;;;;;;;4962955;28;20045;-58
2021/03/27 14:33:32;;;;;;;19.90;10.70;;;;;;;;;;4963896;28;20130;-56
2021/03/27 14:36:01;;;;;;;19.98;11.38;;;;;;;;;;4961532;28;20043;-56
2021/03/27 14:38:45;;;;;;;21.45;10.05;;;;;;;;;;4963281;28;20062;-56
2021/03/27 14:41:17;;;;;;;21.85;11.30;;;;;;;;;;4962068;28;20050;-55
2021/03/27 14:43:46;;;;;;;23.75;10.63;;;;;;;;;;4961770;28;20042;-55
2021/03/27 14:46:12;;;;;;;23.85;9.95;;;;;;;;;;4961932;28;20126;-57
2021/03/27 14:48:41;;;;;;;19.20;10.57;;;;;;;;;;4963622;28;20404;-56
2021/03/27 14:51:18;;;;;;;19.20;10.73;;;;;;;;;;4964143;28;20045;-56
2021/03/27 14:53:47;;;;;;;21.40;11.20;;;;;;;;;;4962696;28;20098;-58
2021/03/27 14:56:13;;;;;;;18.55;10.38;;;;;;;;;;4962671;28;20681;-57
2021/03/27 14:58:57;;;;;;;26.33;10.65;;;;;;;;;;4962399;28;20043;-56
2021/03/27 15:01:39;;;;;;;22.77;10.90;;;;;;;;;;4964254;28;20051;-57
2021/03/27 15:04:24;;;;;;;17.98;10.00;;;;;;;;;;4994640;28;20067;-56
2021/03/27 15:06:52;;;;;;;18.40;9.63;;;;;;;;;;4992327;28;20131;-58
2021/03/27 15:09:29;;;;;;;18.38;10.10;;;;;;;;;;4962631;28;20944;-58
2021/03/27 15:12:05;;;;;;;17.45;10.35;;;;;;;;;;4962594;28;20479;-56
2021/03/27 15:14:40;;;;;;;20.23;11.38;;;;;;;;;;4961190;28;20127;-56
2021/03/27 15:17:21;;;;;;;17.88;9.60;;;;;;;;;;4964123;28;20249;-57
2021/03/27 15:19:53;;;;;;;17.70;9.73;;;;;;;;;;4962440;28;20046;-56
2021/03/27 15:22:24;;;;;;;20.20;10.32;;;;;;;;;;4961986;28;20081;-55
2021/03/27 15:28:09;;;;;;;18.85;10.50;;;;;;;;;;4965519;28;21045;-57